Time;durP1;ratioP1;P1;durP2;ratioP2;P2;SDS_P1;SDS_P2;PMS_P1;PMS_P2;Temp;Humidity;BMP_temperature;BMP_pressure;BME280_temperature;BME280_humidity;BME280_pressure;Samples;Min_cycle;Max_cycle;Signal;HPM_P1;HPM_P2
2022/08/21 00:02:23;;;;;;;0.00;0.00;;;15.60;99.90;;;;;;4954000;28;20055;-83
2022/08/21 00:04:50;;;;;;;0.00;0.00;;;15.60;99.90;;;;;;4956276;28;20141;-83
2022/08/21 00:07:23;;;;;;;0.00;0.00;;;15.60;99.90;;;;;;4960427;28;20046;-83
2022/08/21 00:09:53;;;;;;;0.00;0.00;;;15.60;99.90;;;;;;4965326;28;20059;-82
2022/08/21 00:12:20;;;;;;;0.00;0.00;;;15.50;99.90;;;;;;4956997;28;20055;-83
2022/08/21 00:14:47;;;;;;;0.00;0.00;;;15.50;99.90;;;;;;4951258;28;20310;-83
2022/08/21 00:17:15;;;;;;;0.00;0.00;;;15.50;99.90;;;;;;4956780;28;20050;-83
2022/08/21 00:19:41;;;;;;;0.00;0.00;;;15.50;99.90;;;;;;4953298;28;20109;-83
2022/08/21 00:22:08;;;;;;;0.00;0.00;;;15.40;99.90;;;;;;4967139;28;20050;-83
2022/08/21 00:24:35;;;;;;;0.00;0.00;;;15.40;99.90;;;;;;4955969;28;20083;-81
2022/08/21 00:27:04;;;;;;;0.00;0.00;;;15.40;99.90;;;;;;4958880;28;20451;-83
2022/08/21 00:29:31;;;;;;;0.00;0.00;;;15.40;99.90;;;;;;4956831;28;20047;-83
2022/08/21 00:31:58;;;;;;;0.00;0.00;;;15.30;99.90;;;;;;4952235;28;20051;-83
2022/08/21 00:34:26;;;;;;;0.00;0.00;;;15.40;99.90;;;;;;4949920;28;20039;-82
2022/08/21 00:36:52;;;;;;;0.00;0.00;;;15.40;99.90;;;;;;4955580;28;20326;-83
2022/08/21 00:39:19;;;;;;;0.00;0.00;;;15.50;99.90;;;;;;4950788;28;20098;-82
2022/08/21 00:41:46;;;;;;;0.00;0.00;;;15.50;99.90;;;;;;4953770;28;20055;-83
2022/08/21 00:44:15;;;;;;;0.00;0.00;;;15.50;99.90;;;;;;4948884;28;20062;-83
2022/08/21 00:46:43;;;;;;;0.00;0.00;;;15.50;99.90;;;;;;4965471;28;20055;-83
2022/08/21 00:49:12;;;;;;;0.00;0.00;;;15.50;99.90;;;;;;4953689;28;20058;-83
2022/08/21 00:51:44;;;;;;;0.00;0.00;;;15.50;99.90;;;;;;4951749;28;20051;-83
2022/08/21 00:54:12;;;;;;;0.00;0.00;;;15.30;99.90;;;;;;4954911;28;20440;-84
2022/08/21 00:56:47;;;;;;;0.00;0.00;;;15.40;99.90;;;;;;4945957;28;20499;-83
2022/08/21 00:59:17;;;;;;;0.00;0.00;;;15.50;99.90;;;;;;4946182;28;20055;-83
2022/08/21 01:01:44;;;;;;;0.00;0.00;;;15.50;99.90;;;;;;4954250;28;20039;-83
2022/08/21 01:04:12;;;;;;;0.00;0.00;;;15.50;99.90;;;;;;4950607;28;20043;-83
2022/08/21 01:06:39;;;;;;;0.10;0.10;;;15.50;99.90;;;;;;4955803;28;20054;-80
2022/08/21 01:09:06;;;;;;;0.00;0.00;;;15.30;99.90;;;;;;4947977;28;20047;-82
2022/08/21 01:11:33;;;;;;;0.00;0.00;;;15.40;99.90;;;;;;4947777;28;20043;-82
2022/08/21 01:14:00;;;;;;;0.00;0.00;;;15.50;99.90;;;;;;4947033;28;20051;-82
2022/08/21 01:16:28;;;;;;;0.00;0.00;;;15.50;99.90;;;;;;4951745;28;20054;-83
2022/08/21 01:18:55;;;;;;;0.00;0.00;;;15.30;99.90;;;;;;4948774;28;20047;-83
2022/08/21 01:21:26;;;;;;;0.00;0.00;;;15.30;99.90;;;;;;4953186;28;20431;-83
2022/08/21 01:23:56;;;;;;;0.00;0.00;;;15.30;99.90;;;;;;4952760;28;20138;-83
2022/08/21 01:26:25;;;;;;;0.00;0.00;;;15.30;99.90;;;;;;4958457;28;20047;-83
2022/08/21 01:29:04;;;;;;;0.00;0.00;;;15.50;99.90;;;;;;4949488;28;20438;-83
2022/08/21 01:31:32;;;;;;;0.00;0.00;;;15.60;99.90;;;;;;4955526;28;20544;-83
2022/08/21 01:34:00;;;;;;;0.00;0.00;;;15.60;99.90;;;;;;4950273;28;20545;-83
2022/08/21 01:36:28;;;;;;;0.00;0.00;;;15.50;99.90;;;;;;4948597;28;20051;-83
2022/08/21 01:38:55;;;;;;;0.00;0.00;;;15.50;99.90;;;;;;4964065;28;20102;-83
2022/08/21 01:57:18;;;;;;;0.00;0.00;;;15.50;99.90;;;;;;4957056;28;20115;-82
2022/08/21 01:59:45;;;;;;;0.00;0.00;;;15.50;99.90;;;;;;4956403;29;20047;-82
2022/08/21 02:02:12;;;;;;;0.00;0.00;;;15.60;99.90;;;;;;4947498;28;20054;-82
2022/08/21 02:04:39;;;;;;;0.00;0.00;;;15.60;99.90;;;;;;4956058;28;20094;-82
2022/08/21 02:07:06;;;;;;;0.00;0.00;;;15.60;99.90;;;;;;4955845;28;20047;-81
2022/08/21 02:09:36;;;;;;;0.00;0.00;;;15.60;99.90;;;;;;4942390;28;20043;-82
2022/08/21 02:12:06;;;;;;;0.00;0.00;;;15.70;99.90;;;;;;4953779;28;20034;-82
2022/08/21 02:14:34;;;;;;;0.00;0.00;;;15.80;99.90;;;;;;4970168;28;20107;-82
2022/08/21 02:17:02;;;;;;;0.00;0.00;;;15.70;99.90;;;;;;4956293;28;20047;-82
2022/08/21 02:19:34;;;;;;;0.00;0.00;;;15.60;99.90;;;;;;4960283;28;20039;-82
2022/08/21 02:22:06;;;;;;;0.00;0.00;;;15.40;99.90;;;;;;4957614;28;20047;-83
2022/08/21 02:24:33;;;;;;;0.00;0.00;;;15.40;99.90;;;;;;4959201;28;20487;-81
2022/08/21 02:27:00;;;;;;;0.00;0.00;;;15.40;99.90;;;;;;4956700;28;20043;-82
2022/08/21 02:29:27;;;;;;;0.00;0.00;;;15.40;99.90;;;;;;4953234;28;20047;-80
2022/08/21 02:31:55;;;;;;;0.00;0.00;;;15.40;99.90;;;;;;4961376;28;20043;-82
2022/08/21 02:34:22;;;;;;;0.00;0.00;;;15.50;99.90;;;;;;4956603;28;20495;-82
2022/08/21 02:36:55;;;;;;;0.00;0.00;;;15.50;99.90;;;;;;4954578;28;20043;-82
2022/08/21 02:39:25;;;;;;;0.00;0.00;;;15.40;99.90;;;;;;4956077;28;20051;-83
2022/08/21 02:41:53;;;;;;;0.00;0.00;;;15.50;99.90;;;;;;4966792;28;20182;-82
2022/08/21 02:44:20;;;;;;;0.00;0.00;;;15.50;99.90;;;;;;4950276;28;20051;-82
2022/08/21 02:46:58;;;;;;;0.00;0.00;;;15.50;99.90;;;;;;4962332;28;20405;-82
2022/08/21 02:49:25;;;;;;;0.00;0.00;;;15.50;99.90;;;;;;4956141;28;20530;-82
2022/08/21 02:51:52;;;;;;;0.00;0.00;;;15.20;99.90;;;;;;4957810;28;20043;-82
2022/08/21 02:54:18;;;;;;;0.00;0.00;;;15.30;99.90;;;;;;4958295;28;20047;-81
2022/08/21 02:56:45;;;;;;;0.00;0.00;;;15.30;99.90;;;;;;4965360;28;20132;-81
2022/08/21 02:59:12;;;;;;;0.00;0.00;;;15.30;99.90;;;;;;4955556;28;20047;-82
2022/08/21 03:01:39;;;;;;;0.00;0.00;;;15.40;99.90;;;;;;4956999;28;20043;-82
2022/08/21 03:04:07;;;;;;;0.00;0.00;;;15.40;99.90;;;;;;4959769;28;20074;-82
2022/08/21 03:06:34;;;;;;;0.00;0.00;;;15.40;99.90;;;;;;4970651;28;20043;-81
2022/08/21 03:09:01;;;;;;;0.00;0.00;;;15.40;99.90;;;;;;4953609;28;20059;-82
2022/08/21 03:11:28;;;;;;;0.00;0.00;;;15.50;99.90;;;;;;4952550;28;20074;-82
2022/08/21 03:13:55;;;;;;;0.00;0.00;;;15.40;99.90;;;;;;4952586;28;20500;-82
2022/08/21 03:16:21;;;;;;;0.00;0.00;;;15.90;99.90;;;;;;4952919;28;20451;-82
2022/08/21 03:18:48;;;;;;;0.00;0.00;;;15.50;99.90;;;;;;4955886;28;20519;-83
2022/08/21 03:21:18;;;;;;;0.00;0.00;;;15.60;99.90;;;;;;4954019;28;20043;-80
2022/08/21 03:23:45;;;;;;;;;;;15.50;99.90;;;;;;4959973;28;20143;-82
2022/08/21 03:26:12;;;;;;;0.00;0.00;;;15.50;99.90;;;;;;4968044;28;19923;-82
2022/08/21 03:28:39;;;;;;;0.00;0.00;;;15.50;99.90;;;;;;4957905;28;20083;-82
2022/08/21 03:31:06;;;;;;;0.00;0.00;;;16.60;99.90;;;;;;4955334;28;20047;-82
2022/08/21 03:33:33;;;;;;;0.00;0.00;;;15.40;99.90;;;;;;4953420;28;20079;-81
2022/08/21 03:36:02;;;;;;;0.00;0.00;;;15.20;99.90;;;;;;4953365;28;20565;-82
2022/08/21 03:38:33;;;;;;;0.00;0.00;;;15.20;99.90;;;;;;4957032;28;20047;-82
2022/08/21 03:41:00;;;;;;;0.00;0.00;;;15.10;99.90;;;;;;4952417;28;20046;-82
2022/08/21 03:43:27;;;;;;;0.00;0.00;;;15.10;99.90;;;;;;4957286;28;20051;-82
2022/08/21 03:45:59;;;;;;;0.00;0.00;;;15.20;99.90;;;;;;4951205;28;20496;-82
2022/08/21 03:48:26;;;;;;;0.00;0.00;;;15.30;99.90;;;;;;4954321;28;20078;-82
2022/08/21 03:50:53;;;;;;;0.00;0.00;;;15.30;99.90;;;;;;4950863;28;20051;-82
2022/08/21 03:53:20;;;;;;;0.00;0.00;;;15.20;99.90;;;;;;4951232;28;20507;-82
2022/08/21 03:55:50;;;;;;;0.00;0.00;;;15.20;99.90;;;;;;4950799;28;20039;-82
2022/08/21 03:58:18;;;;;;;;;;;15.20;99.90;;;;;;4952475;28;20055;-82
2022/08/21 04:00:46;;;;;;;0.00;0.00;;;15.00;99.90;;;;;;4956343;28;19922;-82
2022/08/21 04:03:13;;;;;;;0.00;0.00;;;14.90;99.90;;;;;;4955770;28;20058;-82
2022/08/21 04:05:40;;;;;;;0.10;0.10;;;14.70;99.90;;;;;;4946197;28;20059;-82
2022/08/21 04:08:08;;;;;;;0.00;0.00;;;14.70;99.90;;;;;;4967246;28;20078;-82
2022/08/21 04:10:37;;;;;;;0.00;0.00;;;14.70;99.90;;;;;;4950845;28;20095;-82
2022/08/21 04:13:07;;;;;;;0.00;0.00;;;14.70;99.90;;;;;;4955416;28;20047;-82
2022/08/21 04:15:34;;;;;;;0.00;0.00;;;14.90;99.90;;;;;;4951047;28;20043;-80
2022/08/21 04:18:03;;;;;;;0.00;0.00;;;14.90;99.90;;;;;;4950253;28;20052;-82
2022/08/21 04:20:30;;;;;;;0.00;0.00;;;14.90;99.90;;;;;;4958483;28;20075;-81
2022/08/21 04:22:57;;;;;;;0.00;0.00;;;15.00;99.90;;;;;;4973436;28;20066;-79
2022/08/21 04:25:27;;;;;;;0.00;0.00;;;17.40;99.90;;;;;;4963440;28;20043;-81
2022/08/21 04:27:55;;;;;;;0.00;0.00;;;16.90;99.90;;;;;;4951448;28;20059;-81
2022/08/21 04:30:23;;;;;;;0.00;0.00;;;15.30;99.90;;;;;;4952320;28;20111;-82
2022/08/21 04:32:56;;;;;;;0.00;0.00;;;15.40;99.90;;;;;;4957170;28;20035;-82
2022/08/21 04:35:26;;;;;;;0.00;0.00;;;15.40;99.90;;;;;;4950053;28;20043;-81
2022/08/21 04:37:53;;;;;;;0.10;0.10;;;15.40;99.90;;;;;;4952092;28;20063;-80
2022/08/21 04:40:21;;;;;;;0.00;0.00;;;15.40;99.90;;;;;;4953830;28;20055;-82
2022/08/21 04:42:51;;;;;;;0.00;0.00;;;15.40;99.90;;;;;;4958748;28;20436;-80
2022/08/21 04:45:21;;;;;;;0.00;0.00;;;15.30;99.90;;;;;;4958761;28;20051;-82
2022/08/21 04:47:51;;;;;;;0.00;0.00;;;15.40;99.90;;;;;;4957515;28;20102;-82
2022/08/21 04:50:21;;;;;;;0.00;0.00;;;15.40;99.90;;;;;;4953911;28;20056;-82
2022/08/21 04:52:48;;;;;;;0.00;0.00;;;15.40;99.90;;;;;;4957540;28;20047;-82
2022/08/21 04:55:17;;;;;;;0.00;0.00;;;15.50;99.90;;;;;;4954471;28;20051;-83
2022/08/21 04:57:44;;;;;;;0.00;0.00;;;15.50;99.90;;;;;;4957865;28;20385;-80
2022/08/21 05:00:18;;;;;;;0.00;0.00;;;15.40;99.90;;;;;;4952152;28;20047;-81
2022/08/21 05:02:47;;;;;;;0.00;0.00;;;15.50;99.90;;;;;;4954081;28;20138;-81
2022/08/21 05:05:15;;;;;;;0.00;0.00;;;15.40;99.90;;;;;;4972265;28;20046;-83
2022/08/21 05:07:44;;;;;;;0.00;0.00;;;15.40;99.90;;;;;;4958654;28;20098;-80
2022/08/21 05:10:13;;;;;;;0.03;0.03;;;15.40;99.90;;;;;;4953157;28;20051;-79
2022/08/21 05:12:41;;;;;;;0.00;0.00;;;15.30;99.90;;;;;;4959851;28;20051;-82
2022/08/21 05:15:09;;;;;;;0.00;0.00;;;15.20;99.90;;;;;;4950822;28;20055;-82
2022/08/21 05:17:39;;;;;;;0.00;0.00;;;15.20;99.90;;;;;;4949529;28;20115;-80
2022/08/21 05:20:07;;;;;;;0.00;0.00;;;15.20;99.90;;;;;;4956601;28;20107;-82
2022/08/21 05:22:35;;;;;;;0.00;0.00;;;15.30;99.90;;;;;;4955568;28;20055;-81
2022/08/21 05:25:03;;;;;;;0.00;0.00;;;15.30;99.90;;;;;;4948221;28;20047;-82
2022/08/21 05:27:36;;;;;;;0.00;0.00;;;15.40;99.90;;;;;;4955487;28;20058;-82
2022/08/21 05:30:07;;;;;;;0.00;0.00;;;15.40;99.90;;;;;;4970678;28;20420;-81
2022/08/21 05:32:34;;;;;;;0.00;0.00;;;15.40;99.90;;;;;;4950022;28;20047;-81
2022/08/21 05:35:01;;;;;;;0.00;0.00;;;15.40;99.90;;;;;;4953585;28;20042;-82
2022/08/21 05:37:28;;;;;;;0.00;0.00;;;15.50;99.90;;;;;;4960703;28;20086;-81
2022/08/21 05:39:57;;;;;;;0.00;0.00;;;15.40;99.90;;;;;;4960068;28;20050;-82
2022/08/21 05:42:44;;;;;;;0.00;0.00;;;15.50;99.90;;;;;;4950160;28;20058;-82
2022/08/21 05:45:21;;;;;;;0.00;0.00;;;15.50;99.90;;;;;;4963086;28;20047;-81
2022/08/21 05:48:08;;;;;;;0.00;0.00;;;15.50;99.90;;;;;;4962167;28;20061;-82
2022/08/21 05:50:37;;;;;;;0.00;0.00;;;15.50;99.90;;;;;;4963224;28;20074;-81
2022/08/21 05:53:04;;;;;;;0.00;0.00;;;15.50;99.90;;;;;;4966050;28;20573;-82
2022/08/21 05:55:36;;;;;;;0.00;0.00;;;15.60;99.90;;;;;;4960393;28;20075;-81
2022/08/21 05:58:11;;;;;;;0.00;0.00;;;15.70;99.90;;;;;;4958485;28;20070;-82
2022/08/21 06:00:37;;;;;;;0.00;0.00;;;15.80;99.90;;;;;;4956114;28;20047;-79
2022/08/21 06:03:09;;;;;;;0.00;0.00;;;15.80;99.90;;;;;;4977650;28;20042;-82
2022/08/21 06:05:36;;;;;;;0.00;0.00;;;15.90;99.90;;;;;;4963848;28;20073;-82
2022/08/21 06:08:03;;;;;;;0.00;0.00;;;15.90;99.90;;;;;;4964207;28;20054;-82
2022/08/21 06:10:30;;;;;;;0.00;0.00;;;16.00;99.90;;;;;;4964325;28;20051;-82
2022/08/21 06:12:59;;;;;;;0.00;0.00;;;16.00;99.90;;;;;;4959292;28;20034;-82
2022/08/21 06:15:26;;;;;;;0.00;0.00;;;16.10;99.90;;;;;;4959199;28;20051;-82
2022/08/21 06:17:53;;;;;;;0.00;0.00;;;16.20;99.90;;;;;;4960639;28;20054;-82
2022/08/21 06:20:21;;;;;;;0.00;0.00;;;16.30;99.90;;;;;;4978598;28;20058;-82
2022/08/21 06:22:48;;;;;;;0.00;0.00;;;16.30;99.90;;;;;;4959059;28;20090;-81
2022/08/21 06:25:15;;;;;;;0.00;0.00;;;16.40;99.90;;;;;;4957109;28;20055;-83
2022/08/21 06:27:42;;;;;;;0.00;0.00;;;16.40;99.90;;;;;;4954323;28;20039;-82
2022/08/21 06:30:11;;;;;;;0.00;0.00;;;16.50;99.90;;;;;;4961642;28;20294;-83
2022/08/21 06:32:38;;;;;;;0.00;0.00;;;16.50;99.90;;;;;;4959560;28;20546;-82
2022/08/21 06:35:06;;;;;;;0.00;0.00;;;16.60;99.90;;;;;;4964425;28;20039;-83
2022/08/21 06:37:33;;;;;;;0.00;0.00;;;16.60;99.90;;;;;;4962757;28;20055;-81
2022/08/21 06:40:00;;;;;;;0.00;0.00;;;16.70;99.90;;;;;;4960602;28;20110;-81
2022/08/21 06:42:27;;;;;;;0.00;0.00;;;16.80;99.90;;;;;;4958380;28;20043;-82
2022/08/21 06:44:56;;;;;;;0.00;0.00;;;17.00;99.90;;;;;;4961060;28;20049;-82
2022/08/21 06:47:24;;;;;;;0.00;0.00;;;17.10;99.90;;;;;;4962076;28;20055;-80
2022/08/21 06:49:51;;;;;;;0.00;0.00;;;17.20;99.90;;;;;;4963240;28;20047;-82
2022/08/21 06:52:19;;;;;;;0.00;0.00;;;17.20;99.90;;;;;;4958709;28;20043;-83
2022/08/21 06:54:45;;;;;;;0.00;0.00;;;17.90;99.90;;;;;;4961622;28;20495;-82
2022/08/21 06:57:12;;;;;;;0.00;0.00;;;17.50;99.90;;;;;;4965730;28;20065;-83
2022/08/21 06:59:39;;;;;;;0.00;0.00;;;17.40;99.90;;;;;;4961917;28;20050;-82
2022/08/21 07:02:06;;;;;;;0.00;0.00;;;17.40;99.90;;;;;;4961678;28;20075;-82
2022/08/21 07:04:34;;;;;;;0.00;0.00;;;17.50;99.90;;;;;;4962925;28;20055;-82
2022/08/21 07:07:01;;;;;;;0.00;0.00;;;17.60;99.90;;;;;;4955777;28;20050;-81
2022/08/21 07:09:28;;;;;;;0.00;0.00;;;17.80;99.90;;;;;;4961503;28;20563;-82
2022/08/21 07:11:56;;;;;;;0.05;0.05;;;17.90;99.90;;;;;;4966882;28;20043;-82
2022/08/21 07:14:23;;;;;;;0.00;0.00;;;17.90;99.90;;;;;;4959444;28;20051;-83
2022/08/21 07:16:51;;;;;;;0.00;0.00;;;18.00;99.90;;;;;;4965280;28;20086;-82
2022/08/21 07:19:18;;;;;;;0.00;0.00;;;19.30;99.90;;;;;;4959257;28;20126;-82
2022/08/21 07:21:46;;;;;;;0.00;0.00;;;18.10;99.90;;;;;;4960243;28;20056;-82
2022/08/21 07:24:13;;;;;;;0.00;0.00;;;18.20;99.90;;;;;;4961846;28;20043;-82
2022/08/21 07:26:40;;;;;;;0.00;0.00;;;18.30;99.90;;;;;;4963068;28;20105;-81
2022/08/21 07:29:07;;;;;;;0.00;0.00;;;18.50;99.90;;;;;;4964216;28;20067;-82
2022/08/21 07:31:34;;;;;;;0.00;0.00;;;18.50;99.90;;;;;;4978081;28;20047;-81
2022/08/21 07:34:01;;;;;;;0.00;0.00;;;18.60;99.90;;;;;;4956286;28;20040;-80
2022/08/21 07:36:28;;;;;;;0.00;0.00;;;18.70;99.90;;;;;;4961863;28;20048;-82
2022/08/21 07:39:00;;;;;;;0.00;0.00;;;18.80;99.90;;;;;;4964214;28;20054;-82
2022/08/21 07:41:29;;;;;;;0.00;0.00;;;19.80;99.90;;;;;;4966562;28;20058;-81
2022/08/21 07:43:57;;;;;;;0.00;0.00;;;19.00;99.90;;;;;;4963812;28;20047;-81
2022/08/21 07:46:25;;;;;;;0.00;0.00;;;19.10;99.90;;;;;;4967031;28;20062;-81
2022/08/21 07:48:52;;;;;;;0.00;0.00;;;19.10;99.90;;;;;;4962784;28;20050;-81
2022/08/21 07:51:24;;;;;;;0.00;0.00;;;20.40;99.90;;;;;;4980089;28;20058;-81
2022/08/21 07:53:52;;;;;;;0.00;0.00;;;19.60;99.90;;;;;;4968398;28;20831;-83
2022/08/21 07:59:02;;;;;;;0.00;0.00;;;19.40;99.90;;;;;;3469639;23;20055;-84
2022/08/21 08:01:30;;;;;;;0.00;0.00;;;19.50;99.90;;;;;;4950194;28;20051;-84
2022/08/21 08:03:57;;;;;;;0.00;0.00;;;19.50;99.90;;;;;;4943481;28;20508;-82
2022/08/21 08:06:25;;;;;;;0.00;0.00;;;19.60;99.90;;;;;;4950522;28;20046;-82
2022/08/21 08:08:52;;;;;;;0.00;0.00;;;19.70;99.90;;;;;;4952674;28;20090;-82
2022/08/21 08:11:19;;;;;;;0.00;0.00;;;19.70;99.90;;;;;;4951439;28;20051;-82
2022/08/21 08:13:48;;;;;;;0.00;0.00;;;19.70;99.90;;;;;;4949188;28;20095;-82
2022/08/21 08:16:16;;;;;;;0.00;0.00;;;19.80;99.50;;;;;;4949082;28;20052;-82
2022/08/21 08:18:44;;;;;;;0.00;0.00;;;19.90;99.00;;;;;;4952578;28;20050;-82
2022/08/21 08:21:12;;;;;;;0.00;0.00;;;19.90;98.40;;;;;;4968424;28;20043;-81
2022/08/21 08:23:39;;;;;;;0.00;0.00;;;19.90;98.20;;;;;;4950761;28;20051;-83
2022/08/21 08:26:06;;;;;;;0.00;0.00;;;20.00;98.50;;;;;;4955682;28;20051;-82
2022/08/21 08:28:33;;;;;;;0.00;0.00;;;20.10;97.90;;;;;;4950791;28;20060;-82
2022/08/21 08:31:00;;;;;;;0.00;0.00;;;20.00;98.00;;;;;;4954249;28;20090;-82
2022/08/21 08:33:29;;;;;;;0.00;0.00;;;20.10;98.00;;;;;;4964910;28;20105;-82
2022/08/21 08:35:56;;;;;;;0.00;0.00;;;20.10;98.20;;;;;;4952355;28;20050;-82
2022/08/21 08:38:25;;;;;;;0.00;0.00;;;20.20;98.20;;;;;;4941952;28;20075;-84
2022/08/21 08:40:59;;;;;;;0.00;0.00;;;20.20;97.60;;;;;;4952498;28;20048;-83
2022/08/21 08:43:28;;;;;;;0.00;0.00;;;20.20;97.80;;;;;;4950846;28;20051;-83
2022/08/21 08:45:57;;;;;;;0.00;0.00;;;20.30;97.50;;;;;;4951834;28;20044;-84
2022/08/21 08:48:42;;;;;;;0.00;0.00;;;20.30;97.60;;;;;;4965012;28;20047;-84
2022/08/21 08:51:23;;;;;;;0.00;0.00;;;20.30;97.50;;;;;;4953132;28;20031;-84
2022/08/21 08:53:54;;;;;;;0.00;0.00;;;20.40;97.40;;;;;;4968853;28;20094;-83
2022/08/21 08:56:30;;;;;;;0.00;0.00;;;20.40;96.90;;;;;;4953987;28;20098;-84
2022/08/21 08:59:02;;;;;;;0.00;0.00;;;20.50;96.90;;;;;;4972095;28;20188;-84
2022/08/21 09:01:29;;;;;;;0.00;0.00;;;20.60;97.70;;;;;;4957371;28;20051;-83
2022/08/21 09:04:03;;;;;;;0.00;0.00;;;20.70;97.80;;;;;;4947016;28;20051;-82
2022/08/21 09:06:42;;;;;;;0.00;0.00;;;20.80;96.00;;;;;;4950332;28;20055;-83
2022/08/21 09:09:21;;;;;;;0.00;0.00;;;20.80;96.20;;;;;;4949518;28;20520;-83
2022/08/21 09:11:57;;;;;;;0.00;0.00;;;20.80;96.50;;;;;;4949867;28;20500;-83
2022/08/21 09:14:33;;;;;;;0.00;0.00;;;20.90;96.50;;;;;;4947136;28;20294;-83
2022/08/21 09:17:08;;;;;;;0.00;0.00;;;21.00;96.00;;;;;;4949369;28;20047;-83
2022/08/21 09:19:58;;;;;;;0.00;0.00;;;21.20;95.90;;;;;;4953851;28;20047;-83
2022/08/21 09:22:36;;;;;;;0.00;0.00;;;21.40;95.30;;;;;;4955265;28;20060;-83
2022/08/21 09:25:08;;;;;;;0.00;0.00;;;21.40;94.60;;;;;;4950588;28;20048;-83
2022/08/21 09:27:36;;;;;;;0.00;0.00;;;21.40;94.90;;;;;;4950868;28;20405;-83
2022/08/21 09:30:06;;;;;;;0.00;0.00;;;21.50;95.90;;;;;;4948617;28;20048;-82
2022/08/21 09:32:35;;;;;;;0.00;0.00;;;21.50;95.40;;;;;;4951247;28;20058;-83
2022/08/21 09:35:08;;;;;;;0.00;0.00;;;21.60;93.90;;;;;;4940966;28;20051;-83
2022/08/21 09:37:47;;;;;;;0.00;0.00;;;21.60;94.20;;;;;;4962275;28;20054;-82
2022/08/21 09:40:20;;;;;;;0.00;0.00;;;21.60;94.50;;;;;;4953267;28;20508;-84
2022/08/21 09:42:54;;;;;;;0.00;0.00;;;21.70;93.70;;;;;;4954919;28;20574;-84
2022/08/21 09:45:22;;;;;;;0.00;0.00;;;21.60;93.60;;;;;;4946648;28;20730;-82
2022/08/21 09:47:48;;;;;;;0.00;0.00;;;21.70;94.10;;;;;;4947280;28;20043;-84
2022/08/21 09:50:20;;;;;;;0.00;0.00;;;21.60;93.80;;;;;;4949592;28;20103;-83
2022/08/21 09:52:51;;;;;;;0.00;0.00;;;21.60;94.10;;;;;;4948067;28;20051;-84
2022/08/21 09:58:10;;;;;;;0.00;0.00;;;21.60;94.00;;;;;;4953525;28;20462;-83
2022/08/21 10:00:37;;;;;;;0.00;0.00;;;21.70;92.50;;;;;;4952129;28;20040;-83
2022/08/21 10:03:10;;;;;;;0.00;0.00;;;21.70;93.10;;;;;;4953342;28;20055;-82
2022/08/21 10:05:40;;;;;;;0.00;0.00;;;21.70;93.10;;;;;;4951023;28;20051;-83
2022/08/21 10:08:17;;;;;;;0.00;0.00;;;21.70;93.40;;;;;;4948208;28;21434;-84
2022/08/21 10:10:44;;;;;;;0.00;0.00;;;21.90;94.30;;;;;;4963437;28;20496;-82
2022/08/21 10:13:15;;;;;;;0.00;0.00;;;22.10;94.10;;;;;;4951731;28;20467;-85
2022/08/21 10:15:50;;;;;;;0.00;0.00;;;22.20;93.10;;;;;;4944941;28;20110;-82
2022/08/21 10:18:24;;;;;;;0.00;0.00;;;22.20;92.30;;;;;;4953875;28;20043;-82
2022/08/21 10:21:00;;;;;;;0.00;0.00;;;22.30;92.30;;;;;;4954533;28;20047;-81
2022/08/21 10:23:36;;;;;;;0.00;0.00;;;22.40;93.20;;;;;;4950480;28;20042;-82
2022/08/21 10:26:14;;;;;;;0.00;0.00;;;22.50;93.30;;;;;;4949281;28;20035;-84
2022/08/21 10:28:51;;;;;;;0.00;0.00;;;22.60;91.90;;;;;;4953179;28;20043;-83
2022/08/21 10:31:27;;;;;;;0.00;0.00;;;22.50;92.20;;;;;;4944750;28;20649;-83
2022/08/21 10:34:07;;;;;;;0.00;0.00;;;22.60;92.40;;;;;;4951461;28;20551;-84
2022/08/21 10:36:43;;;;;;;0.00;0.00;;;22.70;91.80;;;;;;4952219;28;20496;-81
2022/08/21 10:39:19;;;;;;;0.00;0.00;;;22.70;92.30;;;;;;4951495;28;20459;-84
2022/08/21 10:42:29;;;;;;;0.00;0.00;;;22.80;92.00;;;;;;4948199;28;20050;-84
2022/08/21 10:45:11;;;;;;;0.00;0.00;;;22.80;91.70;;;;;;4950327;28;20032;-84
2022/08/21 10:47:44;;;;;;;0.00;0.00;;;22.90;90.80;;;;;;4940340;28;20042;-83
2022/08/21 10:50:19;;;;;;;0.00;0.00;;;23.00;91.10;;;;;;4953720;28;20059;-83
2022/08/21 10:53:05;;;;;;;0.00;0.00;;;23.10;90.60;;;;;;4944878;28;20074;-83
2022/08/21 10:55:36;;;;;;;0.00;0.00;;;23.10;91.30;;;;;;4949073;28;20083;-83
2022/08/21 10:58:09;;;;;;;0.00;0.00;;;23.20;90.70;;;;;;4950800;28;20046;-83
2022/08/21 11:00:43;;;;;;;0.00;0.00;;;23.30;91.20;;;;;;4954028;28;20046;-83
2022/08/21 11:03:16;;;;;;;0.00;0.00;;;23.30;90.90;;;;;;4962122;28;20058;-84
2022/08/21 11:05:49;;;;;;;0.00;0.00;;;23.30;91.40;;;;;;4948867;28;20221;-84
2022/08/21 11:08:23;;;;;;;0.00;0.00;;;23.20;91.10;;;;;;4953939;28;20094;-84
2022/08/21 11:10:57;;;;;;;0.00;0.00;;;23.20;89.70;;;;;;4949816;28;20534;-83
2022/08/21 11:13:32;;;;;;;0.00;0.00;;;23.20;90.10;;;;;;4942820;28;20412;-84
2022/08/21 11:16:05;;;;;;;0.00;0.00;;;23.30;90.40;;;;;;4952203;28;20480;-84
2022/08/21 11:18:36;;;;;;;0.00;0.00;;;23.40;90.70;;;;;;4954430;28;20094;-84
2022/08/21 11:21:15;;;;;;;0.00;0.00;;;23.40;90.50;;;;;;4950219;28;20051;-83
2022/08/21 11:23:49;;;;;;;0.00;0.00;;;23.30;91.40;;;;;;4953214;28;20055;-82
2022/08/21 11:26:32;;;;;;;0.00;0.00;;;23.50;91.30;;;;;;4962823;28;20507;-83
2022/08/21 11:29:09;;;;;;;0.00;0.00;;;23.60;90.40;;;;;;4938728;28;20042;-83
2022/08/21 11:31:50;;;;;;;0.00;0.00;;;23.60;90.40;;;;;;4951685;28;20055;-83
2022/08/21 11:34:28;;;;;;;0.00;0.00;;;23.70;91.00;;;;;;4947784;28;20070;-83
2022/08/21 11:37:03;;;;;;;0.00;0.00;;;23.70;90.70;;;;;;4946405;28;20059;-83
2022/08/21 11:39:41;;;;;;;0.00;0.00;;;23.70;90.80;;;;;;4950099;28;20128;-83
2022/08/21 11:42:19;;;;;;;0.00;0.00;;;23.80;90.90;;;;;;4950042;28;20053;-84
2022/08/21 11:44:54;;;;;;;0.00;0.00;;;23.90;90.50;;;;;;4953325;28;20036;-82
2022/08/21 11:47:29;;;;;;;0.00;0.00;;;23.90;90.60;;;;;;4945716;28;20058;-81
2022/08/21 11:50:12;;;;;;;0.00;0.00;;;24.00;92.10;;;;;;4947077;28;20541;-83
2022/08/21 11:53:04;;;;;;;0.00;0.00;;;24.40;92.20;;;;;;4949843;28;20058;-83
2022/08/21 11:55:38;;;;;;;0.00;0.00;;;24.60;89.20;;;;;;4952196;28;20051;-83
2022/08/21 11:58:10;;;;;;;0.00;0.00;;;24.70;89.80;;;;;;4955202;28;20047;-83
2022/08/21 12:00:41;;;;;;;0.00;0.00;;;24.80;88.30;;;;;;4950370;28;20496;-83
2022/08/21 12:03:13;;;;;;;0.00;0.00;;;24.60;87.30;;;;;;4958040;28;20106;-83
2022/08/21 12:05:46;;;;;;;0.00;0.00;;;24.60;90.20;;;;;;4947890;28;20500;-83
2022/08/21 12:08:25;;;;;;;0.00;0.00;;;24.80;88.60;;;;;;4975778;28;20050;-83
2022/08/21 12:11:03;;;;;;;0.00;0.00;;;24.70;90.10;;;;;;4961572;28;20467;-84
2022/08/21 12:13:33;;;;;;;0.00;0.00;;;26.20;90.00;;;;;;4956654;28;20042;-83
2022/08/21 12:16:14;;;;;;;0.00;0.00;;;24.80;89.40;;;;;;4950007;28;20061;-83
2022/08/21 12:18:42;;;;;;;0.00;0.00;;;25.00;88.50;;;;;;4952917;28;20451;-83
2022/08/21 12:21:22;;;;;;;0.00;0.00;;;25.20;89.90;;;;;;4957739;28;20070;-84
2022/08/21 12:24:00;;;;;;;0.00;0.00;;;25.40;90.20;;;;;;4956215;28;20046;-82
2022/08/21 12:26:30;;;;;;;0.00;0.00;;;25.50;89.30;;;;;;4952903;28;20054;-83
2022/08/21 12:29:12;;;;;;;0.00;0.00;;;25.70;87.60;;;;;;4957051;28;20039;-84
2022/08/21 12:31:50;;;;;;;0.00;0.00;;;25.90;87.90;;;;;;4952740;28;20055;-83
2022/08/21 12:34:18;;;;;;;0.00;0.00;;;26.10;85.70;;;;;;4964604;28;20058;-84
2022/08/21 12:36:49;;;;;;;0.00;0.00;;;26.10;84.30;;;;;;4950433;28;20089;-84
2022/08/21 12:39:22;;;;;;;0.00;0.00;;;26.10;81.40;;;;;;4950779;28;20047;-84
2022/08/21 12:41:56;;;;;;;0.00;0.00;;;26.00;81.70;;;;;;4948898;28;20500;-82
2022/08/21 12:44:35;;;;;;;0.00;0.00;;;25.90;85.30;;;;;;4956397;28;20101;-82
2022/08/21 12:47:06;;;;;;;0.00;0.00;;;25.70;82.80;;;;;;4959332;28;20495;-83
2022/08/21 12:49:37;;;;;;;0.00;0.00;;;25.60;81.30;;;;;;4976183;28;20051;-83
2022/08/21 12:52:13;;;;;;;0.00;0.00;;;25.70;81.70;;;;;;4957793;28;20110;-83
2022/08/21 12:54:43;;;;;;;0.00;0.00;;;25.60;81.90;;;;;;4961539;28;20047;-83
2022/08/21 12:57:18;;;;;;;;;;;25.70;82.50;;;;;;4967638;28;20047;-83
2022/08/21 12:59:45;;;;;;;0.00;0.00;;;25.90;85.40;;;;;;4962225;28;19922;-84
2022/08/21 13:02:18;;;;;;;0.00;0.00;;;25.90;83.50;;;;;;4965847;28;20077;-83
2022/08/21 13:04:47;;;;;;;0.00;0.00;;;25.70;82.40;;;;;;4960737;28;20101;-82
2022/08/21 13:07:26;;;;;;;0.00;0.00;;;25.50;83.70;;;;;;4964315;28;20556;-83
2022/08/21 13:09:54;;;;;;;;;;;25.50;84.10;;;;;;4956109;28;20397;-83
2022/08/21 13:12:23;;;;;;;0.00;0.00;;;25.30;85.00;;;;;;4950659;28;20762;-83
2022/08/21 13:15:00;;;;;;;0.00;0.00;;;25.50;84.70;;;;;;4953291;28;20059;-84
2022/08/21 13:17:34;;;;;;;0.00;0.00;;;25.60;85.60;;;;;;4950752;28;20054;-83
2022/08/21 13:20:08;;;;;;;0.00;0.00;;;25.80;84.70;;;;;;4950512;28;20039;-83
2022/08/21 13:22:41;;;;;;;0.00;0.00;;;25.90;84.30;;;;;;4946676;28;20098;-82
2022/08/21 13:25:10;;;;;;;0.00;0.00;;;25.60;84.70;;;;;;4949719;28;20032;-83
2022/08/21 13:27:38;;;;;;;0.00;0.00;;;25.60;85.20;;;;;;4956979;28;20050;-83